createdAt,value
2023-03-17T00:01:30.951Z,100812.25
2023-03-17T00:03:58.655Z,100809.19
2023-03-17T00:06:29.701Z,100814.16
2023-03-17T00:08:57.319Z,100810.25
2023-03-17T00:11:25.320Z,100809.19
2023-03-17T00:13:52.826Z,100799.81
2023-03-17T00:16:25.712Z,100796.97
2023-03-17T00:18:53.642Z,100799.47
2023-03-17T00:21:28.605Z,100791.50
2023-03-17T00:23:56.216Z,100788.44
2023-03-17T00:26:24.142Z,100783.22
2023-03-17T00:28:53.071Z,100779.31
2023-03-17T00:31:25.220Z,100768.97
2023-03-17T00:33:54.623Z,100764.00
2023-03-17T00:36:29.452Z,100763.16
2023-03-17T00:38:57.215Z,100760.00
2023-03-17T00:41:25.342Z,100767.38
2023-03-17T00:43:51.966Z,100771.44
2023-03-17T00:46:36.006Z,100770.94
2023-03-17T00:49:10.790Z,100769.22
2023-03-17T00:51:40.078Z,100761.47
2023-03-17T00:54:07.087Z,100764.47
2023-03-17T00:56:33.757Z,100762.81
2023-03-17T00:59:00.489Z,100751.22
2023-03-17T01:01:27.022Z,100752.88
2023-03-17T01:03:53.786Z,100751.72
2023-03-17T01:06:20.343Z,100755.00
2023-03-17T01:08:47.413Z,100758.47
2023-03-17T01:11:19.913Z,100755.28
2023-03-17T01:13:47.121Z,100749.22
2023-03-17T01:16:15.532Z,100757.91
2023-03-17T01:18:42.616Z,100752.19
2023-03-17T01:21:09.344Z,100752.94
2023-03-17T01:23:36.460Z,100737.09
2023-03-17T01:26:03.069Z,100753.50
2023-03-17T01:28:29.656Z,100741.06
2023-03-17T01:30:56.714Z,100742.47
2023-03-17T01:33:24.213Z,100750.09
2023-03-17T01:35:51.114Z,100741.34
2023-03-17T01:38:18.025Z,100730.63
2023-03-17T01:40:47.934Z,100736.59
2023-03-17T01:43:27.737Z,100737.50
2023-03-17T01:46:28.084Z,100729.91
2023-03-17T01:49:05.559Z,100734.44
2023-03-17T01:51:53.645Z,100736.00
2023-03-17T01:54:29.607Z,100734.78
2023-03-17T01:57:09.257Z,100728.88
2023-03-17T01:59:42.209Z,100724.03
2023-03-17T02:02:11.149Z,100721.78
2023-03-17T02:04:40.213Z,100712.44
2023-03-17T02:07:07.376Z,100709.34
2023-03-17T02:09:34.889Z,100706.69
2023-03-17T02:12:03.712Z,100708.25
2023-03-17T02:14:30.643Z,100700.91
2023-03-17T02:16:57.554Z,100689.91
2023-03-17T02:19:24.394Z,100692.63
2023-03-17T02:21:53.929Z,100702.97
2023-03-17T02:24:26.436Z,100704.03
2023-03-17T02:26:55.678Z,100703.69
2023-03-17T02:29:23.041Z,100699.06
2023-03-17T02:31:50.436Z,100694.66
2023-03-17T02:34:17.422Z,100690.03
2023-03-17T02:36:44.206Z,100689.19
2023-03-17T02:39:11.065Z,100686.97
2023-03-17T02:41:37.980Z,100677.13
2023-03-17T02:44:04.673Z,100671.06
2023-03-17T02:46:31.484Z,100678.69
2023-03-17T02:49:01.537Z,100674.28
2023-03-17T02:51:28.472Z,100672.06
2023-03-17T02:53:55.212Z,100678.31
2023-03-17T02:56:21.736Z,100667.91
2023-03-17T02:58:48.352Z,100664.94
2023-03-17T03:01:15.660Z,100664.81
2023-03-17T03:03:42.323Z,100668.16
2023-03-17T03:06:08.836Z,100671.00
2023-03-17T03:08:35.672Z,100676.47
2023-03-17T03:11:03.349Z,100686.31
2023-03-17T03:13:29.863Z,100684.09
2023-03-17T03:15:56.496Z,100671.38
2023-03-17T03:18:23.545Z,100677.47
2023-03-17T03:20:50.080Z,100672.84
2023-03-17T03:23:16.911Z,100677.59
2023-03-17T03:25:43.431Z,100682.56
2023-03-17T03:28:10.095Z,100687.19
2023-03-17T03:30:37.480Z,100690.50
2023-03-17T03:33:05.259Z,100691.34
2023-03-17T03:35:32.040Z,100689.44
2023-03-17T03:37:58.648Z,100689.44
2023-03-17T03:40:25.750Z,100681.50
2023-03-17T03:42:52.499Z,100674.38
2023-03-17T03:45:19.221Z,100686.59
2023-03-17T03:47:46.012Z,100696.72
2023-03-17T03:50:13.230Z,100696.09
2023-03-17T03:52:40.006Z,100702.88
2023-03-17T03:55:06.903Z,100701.56
2023-03-17T03:57:33.538Z,100707.38
2023-03-17T04:00:00.545Z,100701.34
2023-03-17T04:02:27.446Z,100703.47
2023-03-17T04:04:54.235Z,100719.84
2023-03-17T04:07:21.351Z,100710.34
2023-03-17T04:09:51.229Z,100712.47
2023-03-17T04:12:18.161Z,100711.91
2023-03-17T04:14:44.800Z,100708.34
2023-03-17T04:17:13.022Z,100716.53
2023-03-17T04:19:39.593Z,100709.91
2023-03-17T04:22:07.491Z,100707.16
2023-03-17T04:24:34.860Z,100709.06
2023-03-17T04:27:03.699Z,100703.00
2023-03-17T04:29:32.078Z,100700.28
2023-03-17T04:31:58.711Z,100706.81
2023-03-17T04:34:25.830Z,100713.91
2023-03-17T04:36:52.393Z,100701.84
2023-03-17T04:39:19.095Z,100706.47
2023-03-17T04:41:46.401Z,100703.97
2023-03-17T04:44:12.934Z,100712.16
2023-03-17T04:46:39.557Z,100712.66
2023-03-17T04:49:06.950Z,100711.81
2023-03-17T04:51:33.624Z,100704.47
2023-03-17T04:54:00.950Z,100706.13
2023-03-17T04:56:27.850Z,100702.78
2023-03-17T04:58:54.772Z,100702.44
2023-03-17T05:01:21.689Z,100706.59
2023-03-17T05:03:48.963Z,100703.28
2023-03-17T05:06:16.200Z,100697.84
2023-03-17T05:08:44.884Z,100687.41
2023-03-17T05:11:12.456Z,100688.81
2023-03-17T05:13:40.944Z,100687.41
2023-03-17T05:16:09.020Z,100703.78
2023-03-17T05:18:37.094Z,100692.03
2023-03-17T05:21:05.285Z,100694.16
2023-03-17T05:23:32.428Z,100693.31
2023-03-17T05:25:59.264Z,100691.69
2023-03-17T05:28:26.650Z,100697.13
2023-03-17T05:30:53.635Z,100694.63
2023-03-17T05:33:21.533Z,100695.97
2023-03-17T05:35:48.141Z,100694.50
2023-03-17T05:38:15.936Z,100708.41
2023-03-17T05:40:43.357Z,100703.44
2023-03-17T05:43:10.101Z,100706.63
2023-03-17T05:45:37.098Z,100707.44
2023-03-17T05:48:04.645Z,100712.91
2023-03-17T05:50:31.698Z,100701.16
2023-03-17T05:52:58.562Z,100705.81
2023-03-17T05:55:25.189Z,100698.69
2023-03-17T05:57:52.087Z,100697.63
2023-03-17T06:00:19.092Z,100690.50
2023-03-17T06:02:45.962Z,100685.78
2023-03-17T06:05:13.260Z,100689.34
2023-03-17T06:07:51.717Z,100682.91
2023-03-17T06:10:21.857Z,100692.53
2023-03-17T06:12:48.507Z,100687.88
2023-03-17T06:15:16.589Z,100697.66
2023-03-17T06:17:43.281Z,100685.91
2023-03-17T06:20:10.432Z,100692.41
2023-03-17T06:22:37.858Z,100698.09
2023-03-17T06:25:04.925Z,100694.31
2023-03-17T06:27:32.369Z,100695.97
2023-03-17T06:30:00.182Z,100695.13
2023-03-17T06:32:27.250Z,100696.56
2023-03-17T06:34:54.708Z,100702.00
2023-03-17T06:37:21.468Z,100698.44
2023-03-17T06:39:48.290Z,100703.91
2023-03-17T06:42:15.112Z,100703.91
2023-03-17T06:44:41.738Z,100712.69
2023-03-17T06:47:08.295Z,100706.97
2023-03-17T06:49:34.842Z,100710.31
2023-03-17T06:52:01.362Z,100701.28
2023-03-17T06:54:29.005Z,100698.34
2023-03-17T06:56:56.037Z,100699.97
2023-03-17T06:59:24.962Z,100711.50
2023-03-17T07:01:52.154Z,100701.41
2023-03-17T07:04:19.567Z,100706.63
2023-03-17T07:06:46.100Z,100700.72
2023-03-17T07:09:12.577Z,100703.19
2023-03-17T07:11:39.476Z,100712.81
2023-03-17T07:14:06.283Z,100705.81
2023-03-17T07:16:32.871Z,100708.53
2023-03-17T07:18:59.690Z,100707.22
2023-03-17T07:21:26.248Z,100705.91
2023-03-17T07:23:52.814Z,100713.03
2023-03-17T07:26:19.595Z,100702.69
2023-03-17T07:28:46.649Z,100700.34
2023-03-17T07:31:14.468Z,100701.13
2023-03-17T07:33:41.281Z,100702.31
2023-03-17T07:36:09.013Z,100689.75
2023-03-17T07:38:36.224Z,100685.72
2023-03-17T07:41:04.660Z,100683.31
2023-03-17T07:43:31.810Z,100678.44
2023-03-17T07:45:58.873Z,100681.78
2023-03-17T07:48:25.471Z,100677.72
2023-03-17T07:50:52.270Z,100683.53
2023-03-17T07:53:19.165Z,100697.78
2023-03-17T07:55:45.797Z,100701.06
2023-03-17T07:58:15.532Z,100688.88
2023-03-17T08:00:42.284Z,100699.28
2023-03-17T08:03:10.884Z,100707.25
2023-03-17T08:05:37.978Z,100703.44
2023-03-17T08:08:06.653Z,100701.31
2023-03-17T08:10:33.737Z,100697.84
2023-03-17T08:13:00.721Z,100697.59
2023-03-17T08:15:27.363Z,100703.66
2023-03-17T08:17:54.107Z,100691.41
2023-03-17T08:20:21.763Z,100693.06
2023-03-17T08:22:48.357Z,100705.16
2023-03-17T08:25:15.214Z,100706.00
2023-03-17T08:27:42.443Z,100700.03
2023-03-17T08:30:09.722Z,100691.13
2023-03-17T08:32:36.808Z,100695.50
2023-03-17T08:35:05.014Z,100697.75
2023-03-17T08:37:32.241Z,100696.44
2023-03-17T08:39:58.976Z,100685.84
2023-03-17T08:42:25.956Z,100685.13
2023-03-17T08:44:52.467Z,100682.94
2023-03-17T08:47:19.041Z,100675.34
2023-03-17T08:49:45.616Z,100676.25
2023-03-17T08:52:12.588Z,100685.16
2023-03-17T08:54:39.272Z,100684.91
2023-03-17T08:57:05.954Z,100686.69
2023-03-17T08:59:33.534Z,100691.16
2023-03-17T09:02:00.627Z,100698.34
2023-03-17T09:04:27.946Z,100691.91
2023-03-17T09:07:03.467Z,100681.13
2023-03-17T09:09:31.271Z,100670.28
2023-03-17T09:11:57.816Z,100677.47
2023-03-17T09:14:24.821Z,100677.00
2023-03-17T09:16:52.223Z,100677.88
2023-03-17T09:19:18.882Z,100683.75
2023-03-17T09:21:45.842Z,100664.69
2023-03-17T09:24:12.611Z,100677.34
2023-03-17T09:26:39.228Z,100671.13
2023-03-17T09:29:07.197Z,100668.13
2023-03-17T09:31:36.325Z,100676.75
2023-03-17T09:34:06.230Z,100680.38
2023-03-17T09:36:33.618Z,100674.91
2023-03-17T09:39:00.972Z,100681.53
2023-03-17T09:41:30.195Z,100674.53
2023-03-17T09:44:20.351Z,100667.47
2023-03-17T09:47:22.641Z,100670.03
2023-03-17T09:49:55.918Z,100677.09
2023-03-17T09:52:28.968Z,100695.00
2023-03-17T09:54:57.001Z,100699.63
2023-03-17T09:57:32.307Z,100695.34
2023-03-17T10:00:06.403Z,100703.25
2023-03-17T10:02:37.854Z,100697.78
2023-03-17T10:05:19.615Z,100684.06
2023-03-17T10:08:28.846Z,100688.25
2023-03-17T10:11:23.441Z,100703.91
2023-03-17T10:14:23.423Z,100713.38
2023-03-17T10:17:16.715Z,100723.31
2023-03-17T10:20:05.689Z,100726.75
2023-03-17T10:23:03.366Z,100722.47
2023-03-17T10:25:33.886Z,100715.38
2023-03-17T10:28:08.754Z,100740.84
2023-03-17T10:30:35.481Z,100742.28
2023-03-17T10:33:04.186Z,100744.03
2023-03-17T10:35:36.139Z,100727.41
2023-03-17T10:38:16.127Z,100734.91
2023-03-17T10:40:54.624Z,100736.00
2023-03-17T10:43:23.634Z,100740.72
2023-03-17T10:46:02.382Z,100743.38
2023-03-17T10:48:30.814Z,100739.22
2023-03-17T10:50:58.732Z,100733.56
2023-03-17T10:53:30.278Z,100724.03
2023-03-17T10:56:08.228Z,100715.13
2023-03-17T10:58:43.324Z,100721.19
2023-03-17T11:01:38.539Z,100716.72
2023-03-17T11:04:20.666Z,100709.59
2023-03-17T11:06:51.107Z,100721.13
2023-03-17T11:09:19.492Z,100717.91
2023-03-17T11:11:48.749Z,100717.13
2023-03-17T11:14:18.749Z,100708.94
2023-03-17T11:16:55.961Z,100697.16
2023-03-17T11:19:48.562Z,100699.47
2023-03-17T11:22:24.101Z,100689.63
2023-03-17T11:24:55.917Z,100696.22
2023-03-17T11:27:34.212Z,100687.53
2023-03-17T11:30:14.894Z,100684.19
2023-03-17T11:33:10.670Z,100679.81
2023-03-17T11:35:39.710Z,100680.91
2023-03-17T11:38:15.813Z,100690.28
2023-03-17T11:41:02.149Z,100696.66
2023-03-17T11:44:05.617Z,100686.53
2023-03-17T11:46:56.751Z,100694.25
2023-03-17T11:49:40.782Z,100690.97
2023-03-17T11:52:28.576Z,100681.38
2023-03-17T11:55:07.744Z,100663.22
2023-03-17T11:57:44.576Z,100670.94
2023-03-17T12:00:20.037Z,100669.03
2023-03-17T12:02:58.003Z,100661.31
2023-03-17T12:05:27.266Z,100656.38
2023-03-17T12:08:06.026Z,100655.84
2023-03-17T12:10:40.531Z,100667.13
2023-03-17T12:13:13.311Z,100672.66
2023-03-17T12:15:41.786Z,100658.59
2023-03-17T12:18:16.303Z,100653.63
2023-03-17T12:20:48.840Z,100655.31
2023-03-17T12:23:29.808Z,100659.97
2023-03-17T12:25:59.248Z,100655.31
2023-03-17T12:28:31.079Z,100655.56
2023-03-17T12:31:05.732Z,100653.09
2023-03-17T12:33:43.907Z,100652.50
2023-03-17T12:36:17.556Z,100656.88
2023-03-17T12:38:52.108Z,100669.53
2023-03-17T12:41:49.693Z,100659.03
2023-03-17T12:44:58.401Z,100657.91
2023-03-17T12:47:45.947Z,100650.16
2023-03-17T12:50:43.672Z,100640.47
2023-03-17T12:53:19.253Z,100641.31
2023-03-17T12:55:49.173Z,100638.53
2023-03-17T12:58:18.649Z,100638.84
2023-03-17T13:00:55.446Z,100637.66
2023-03-17T13:03:25.760Z,100622.78
2023-03-17T13:05:59.367Z,100618.09
2023-03-17T13:08:36.589Z,100615.84
2023-03-17T13:11:27.213Z,100617.94
2023-03-17T13:13:53.701Z,100618.56
2023-03-17T13:16:41.068Z,100612.41
2023-03-17T13:19:12.958Z,100610.78
2023-03-17T13:22:04.021Z,100614.66
2023-03-17T13:24:50.884Z,100612.41
2023-03-17T13:27:32.428Z,100619.84
2023-03-17T13:30:07.982Z,100628.44
2023-03-17T13:32:38.075Z,100619.66
2023-03-17T13:35:16.728Z,100620.66
2023-03-17T13:38:20.820Z,100616.97
2023-03-17T13:41:01.587Z,100603.25
2023-03-17T13:43:48.216Z,100600.06
2023-03-17T13:46:33.957Z,100588.88
2023-03-17T13:49:19.681Z,100591.03
2023-03-17T13:52:11.614Z,100587.16
2023-03-17T13:54:48.082Z,100581.72
2023-03-17T13:57:40.852Z,100580.84
2023-03-17T14:00:07.314Z,100578.00
2023-03-17T14:02:38.536Z,100571.09
2023-03-17T14:05:27.334Z,100574.31
2023-03-17T14:08:01.216Z,100575.97
2023-03-17T14:10:29.845Z,100573.03
2023-03-17T14:13:24.277Z,100578.41
2023-03-17T14:15:56.960Z,100569.03
2023-03-17T14:18:37.620Z,100564.63
2023-03-17T14:21:09.951Z,100561.81
2023-03-17T14:23:37.841Z,100553.16
2023-03-17T14:26:05.017Z,100562.50
2023-03-17T14:28:34.511Z,100562.44
2023-03-17T14:31:03.447Z,100561.00
2023-03-17T14:33:34.476Z,100564.91
2023-03-17T14:36:03.008Z,100555.50
2023-03-17T14:38:35.372Z,100549.13
2023-03-17T14:41:16.407Z,100554.88
2023-03-17T14:43:44.264Z,100539.50
2023-03-17T14:46:22.941Z,100546.53
2023-03-17T14:48:56.368Z,100543.31
2023-03-17T14:51:22.881Z,100530.09
2023-03-17T14:53:52.063Z,100530.94
2023-03-17T14:56:24.135Z,100536.69
2023-03-17T14:58:52.137Z,100532.88
2023-03-17T15:01:38.693Z,100529.38
2023-03-17T15:04:12.468Z,100532.28
2023-03-17T15:06:56.453Z,100539.69
2023-03-17T15:09:27.565Z,100530.63
2023-03-17T15:11:57.465Z,100530.34
2023-03-17T15:14:38.708Z,100528.09
2023-03-17T15:17:22.519Z,100526.16
2023-03-17T15:19:52.384Z,100527.25
2023-03-17T15:22:41.392Z,100522.56
2023-03-17T15:25:20.146Z,100528.09
2023-03-17T15:27:47.769Z,100519.13
2023-03-17T15:30:15.679Z,100515.25
2023-03-17T15:32:42.444Z,100516.94
2023-03-17T15:35:13.317Z,100508.66
2023-03-17T15:37:41.526Z,100519.16
2023-03-17T15:40:09.640Z,100516.72
2023-03-17T15:42:38.436Z,100523.59
2023-03-17T15:45:05.693Z,100514.78
2023-03-17T15:47:36.647Z,100524.69
2023-03-17T15:50:14.989Z,100523.75
2023-03-17T15:52:42.029Z,100523.06
2023-03-17T15:55:19.800Z,100513.00
2023-03-17T15:57:54.826Z,100515.25
2023-03-17T16:00:23.613Z,100511.59
2023-03-17T16:02:54.564Z,100517.84
2023-03-17T16:05:27.735Z,100515.41
2023-03-17T16:07:54.775Z,100509.06
2023-03-17T16:10:27.204Z,100511.72
2023-03-17T16:12:54.486Z,100504.13
2023-03-17T16:15:24.639Z,100507.78
2023-03-17T16:17:53.949Z,100514.13
2023-03-17T16:20:24.999Z,100520.22
2023-03-17T16:22:54.434Z,100517.78
2023-03-17T16:25:25.473Z,100516.94
2023-03-17T16:27:53.160Z,100511.44
2023-03-17T16:30:28.667Z,100528.38
2023-03-17T16:33:00.218Z,100531.41
2023-03-17T16:35:26.628Z,100529.22
2023-03-17T16:37:54.306Z,100525.38
2023-03-17T16:40:28.826Z,100536.72
2023-03-17T16:42:55.507Z,100528.78
2023-03-17T16:45:24.696Z,100537.59
2023-03-17T16:47:51.271Z,100535.41
2023-03-17T16:50:23.881Z,100525.47
2023-03-17T16:52:50.845Z,100524.66
2023-03-17T16:55:19.033Z,100529.66
2023-03-17T16:57:47.089Z,100542.66
2023-03-17T17:00:22.145Z,100531.06
2023-03-17T17:02:49.869Z,100558.19
2023-03-17T17:05:34.860Z,100559.22
2023-03-17T17:08:01.485Z,100562.91
2023-03-17T17:10:30.832Z,100551.34
2023-03-17T17:12:57.637Z,100545.84
2023-03-17T17:15:24.231Z,100556.66
2023-03-17T17:17:54.771Z,100569.66
2023-03-17T17:20:26.088Z,100566.06
2023-03-17T17:22:52.767Z,100563.94
2023-03-17T17:25:19.297Z,100578.75
2023-03-17T17:27:46.941Z,100578.00
2023-03-17T17:30:17.938Z,100574.41
2023-03-17T17:32:45.722Z,100571.66
2023-03-17T17:35:13.636Z,100572.00
2023-03-17T17:37:40.135Z,100577.28
2023-03-17T17:40:08.526Z,100583.63
2023-03-17T17:42:35.727Z,100582.81
2023-03-17T17:45:02.296Z,100596.06
2023-03-17T17:47:32.146Z,100595.00
2023-03-17T17:49:59.854Z,100604.38
2023-03-17T17:52:26.581Z,100593.91
2023-03-17T17:54:53.162Z,100600.56
2023-03-17T17:57:19.764Z,100607.19
2023-03-17T17:59:46.280Z,100595.31
2023-03-17T18:02:13.624Z,100595.09
2023-03-17T18:04:41.416Z,100596.19
2023-03-17T18:07:08.357Z,100594.84
2023-03-17T18:09:35.614Z,100598.69
2023-03-17T18:12:02.247Z,100600.13
2023-03-17T18:14:28.975Z,100600.66
2023-03-17T18:16:56.202Z,100602.06
2023-03-17T18:19:22.865Z,100611.22
2023-03-17T18:21:49.386Z,100599.09
2023-03-17T18:24:16.319Z,100605.75
2023-03-17T18:26:42.912Z,100601.91
2023-03-17T18:29:10.096Z,100604.13
2023-03-17T18:31:46.307Z,100602.75
2023-03-17T18:34:18.982Z,100608.56
2023-03-17T18:36:47.794Z,100602.78
2023-03-17T18:39:15.875Z,100598.97
2023-03-17T18:41:43.636Z,100608.88
2023-03-17T18:44:10.359Z,100603.94
2023-03-17T18:46:37.830Z,100611.41
2023-03-17T18:49:05.762Z,100614.72
2023-03-17T18:51:32.864Z,100613.06
2023-03-17T18:53:59.922Z,100607.00
2023-03-17T18:56:29.148Z,100607.06
2023-03-17T18:58:56.950Z,100608.69
2023-03-17T19:01:23.815Z,100624.69
2023-03-17T19:03:50.951Z,100625.81
2023-03-17T19:06:20.974Z,100626.09
2023-03-17T19:08:48.358Z,100618.63
2023-03-17T19:11:16.527Z,100620.84
2023-03-17T19:13:44.617Z,100614.81
2023-03-17T19:16:11.742Z,100611.50
2023-03-17T19:18:41.884Z,100627.47
2023-03-17T19:21:09.563Z,100624.19
2023-03-17T19:23:38.056Z,100610.97
2023-03-17T19:26:05.847Z,100628.06
2023-03-17T19:28:32.940Z,100622.28
2023-03-17T19:30:59.593Z,100625.03
2023-03-17T19:33:26.444Z,100625.31
2023-03-17T19:35:56.093Z,100619.81
2023-03-17T19:38:23.998Z,100619.81
2023-03-17T19:40:50.578Z,100632.19
2023-03-17T19:43:32.518Z,100629.19
2023-03-17T19:46:04.016Z,100626.16
2023-03-17T19:48:30.549Z,100635.84
2023-03-17T19:50:57.560Z,100624.81
2023-03-17T19:53:24.080Z,100622.06
2023-03-17T19:55:50.584Z,100627.00
2023-03-17T19:58:17.177Z,100627.56
2023-03-17T20:00:43.691Z,100627.84
2023-03-17T20:03:10.260Z,100620.16
2023-03-17T20:05:36.893Z,100626.50
2023-03-17T20:08:03.464Z,100624.31
2023-03-17T20:10:30.248Z,100621.81
2023-03-17T20:12:57.055Z,100630.09
2023-03-17T20:15:23.689Z,100622.09
2023-03-17T20:17:50.185Z,100628.44
2023-03-17T20:20:16.789Z,100633.69
2023-03-17T20:22:43.922Z,100640.84
2023-03-17T20:25:11.178Z,100641.41
2023-03-17T20:27:38.023Z,100637.56
2023-03-17T20:30:08.325Z,100641.41
2023-03-17T20:32:35.501Z,100633.16
2023-03-17T20:35:02.694Z,100650.25
2023-03-17T20:37:29.282Z,100645.84
2023-03-17T20:39:57.318Z,100646.09
2023-03-17T20:42:24.235Z,100650.78
2023-03-17T20:44:52.993Z,100651.91
2023-03-17T20:47:20.891Z,100659.63
2023-03-17T20:49:47.773Z,100660.72
2023-03-17T20:52:14.939Z,100658.53
2023-03-17T20:54:42.045Z,100666.22
2023-03-17T20:57:13.937Z,100667.34
2023-03-17T20:59:41.572Z,100665.38
2023-03-17T21:02:17.424Z,100662.38
2023-03-17T21:04:48.821Z,100668.16
2023-03-17T21:07:17.584Z,100678.91
2023-03-17T21:09:45.201Z,100685.78
2023-03-17T21:12:16.807Z,100678.91
2023-03-17T21:14:44.074Z,100678.91
2023-03-17T21:17:11.374Z,100675.88
2023-03-17T21:19:38.283Z,100671.19
2023-03-17T21:22:05.623Z,100676.19
2023-03-17T21:24:36.909Z,100671.22
2023-03-17T21:27:06.244Z,100677.28
2023-03-17T21:29:34.337Z,100661.84
2023-03-17T21:32:01.596Z,100661.56
2023-03-17T21:34:29.996Z,100659.91
2023-03-17T21:36:57.287Z,100668.47
2023-03-17T21:39:27.583Z,100670.41
2023-03-17T21:41:55.981Z,100671.53
2023-03-17T21:44:22.581Z,100672.88
2023-03-17T21:46:49.799Z,100680.63
2023-03-17T21:49:17.182Z,100681.16
2023-03-17T21:51:44.358Z,100685.03
2023-03-17T21:54:11.197Z,100702.09
2023-03-17T21:56:38.611Z,100692.19
2023-03-17T21:59:05.944Z,100703.47
2023-03-17T22:01:33.204Z,100705.38
2023-03-17T22:03:59.783Z,100699.59
2023-03-17T22:06:27.439Z,100699.91
2023-03-17T22:08:54.010Z,100693.56
2023-03-17T22:11:20.680Z,100699.88
2023-03-17T22:13:48.050Z,100694.94
2023-03-17T22:16:16.223Z,100703.19
2023-03-17T22:18:43.014Z,100711.47
2023-03-17T22:21:10.143Z,100697.94
2023-03-17T22:23:41.556Z,100708.44
2023-03-17T22:26:12.254Z,100704.84
2023-03-17T22:28:39.316Z,100696.31
2023-03-17T22:31:18.140Z,100705.13
2023-03-17T22:33:45.176Z,100704.56
2023-03-17T22:36:12.005Z,100700.44
2023-03-17T22:38:38.951Z,100705.94
2023-03-17T22:41:08.293Z,100706.75
2023-03-17T22:43:36.573Z,100712.28
2023-03-17T22:46:03.492Z,100703.44
2023-03-17T22:48:32.273Z,100695.72
2023-03-17T22:51:07.116Z,100714.16
2023-03-17T22:53:33.942Z,100723.22
2023-03-17T22:56:00.842Z,100715.78
2023-03-17T22:58:28.194Z,100722.41
2023-03-17T23:00:56.208Z,100722.41
2023-03-17T23:03:24.159Z,100733.94
2023-03-17T23:05:53.019Z,100727.34
2023-03-17T23:08:20.815Z,100732.84
2023-03-17T23:10:51.961Z,100735.06
2023-03-17T23:13:19.828Z,100730.91
2023-03-17T23:15:47.409Z,100747.16
2023-03-17T23:18:14.222Z,100727.88
2023-03-17T23:20:41.847Z,100734.19
2023-03-17T23:23:10.145Z,100737.22
2023-03-17T23:25:38.375Z,100733.66
2023-03-17T23:28:06.720Z,100733.34
2023-03-17T23:30:34.516Z,100746.31
2023-03-17T23:33:01.475Z,100746.00
2023-03-17T23:35:28.965Z,100742.69
2023-03-17T23:37:55.558Z,100746.03
2023-03-17T23:40:23.512Z,100755.34
2023-03-17T23:42:50.266Z,100760.84
2023-03-17T23:45:18.036Z,100758.09
2023-03-17T23:47:46.614Z,100765.50
2023-03-17T23:50:14.712Z,100762.47
2023-03-17T23:52:42.484Z,100764.13
2023-03-17T23:55:11.674Z,100771.81
2023-03-17T23:57:38.759Z,100764.69
